sensor_id;sensor_type;location;lat;lon;timestamp;pressure;altitude;pressure_sealevel;temperature;humidity
78121;BME280;67585;44.802;10.332;2023-07-30T00:00:02;100627.50;;;27.49;49.72
78121;BME280;67585;44.802;10.332;2023-07-30T00:02:46;100622.41;;;27.51;50.63
78121;BME280;67585;44.802;10.332;2023-07-30T00:05:11;100615.84;;;27.10;52.93
78121;BME280;67585;44.802;10.332;2023-07-30T00:07:37;100613.31;;;27.01;54.26
78121;BME280;67585;44.802;10.332;2023-07-30T00:10:02;100615.38;;;26.81;54.88
78121;BME280;67585;44.802;10.332;2023-07-30T00:12:28;100616.75;;;26.48;53.96
78121;BME280;67585;44.802;10.332;2023-07-30T00:14:53;100649.03;;;26.63;53.60
78121;BME280;67585;44.802;10.332;2023-07-30T00:17:19;100651.56;;;26.53;53.17
78121;BME280;67585;44.802;10.332;2023-07-30T00:19:44;100665.56;;;26.40;52.34
78121;BME280;67585;44.802;10.332;2023-07-30T00:22:09;100645.59;;;26.08;51.29
78121;BME280;67585;44.802;10.332;2023-07-30T00:24:35;100657.97;;;26.14;50.98
78121;BME280;67585;44.802;10.332;2023-07-30T00:27:00;100655.19;;;25.95;51.57
78121;BME280;67585;44.802;10.332;2023-07-30T00:29:25;100655.13;;;26.11;50.77
78121;BME280;67585;44.802;10.332;2023-07-30T00:31:51;100672.94;;;25.78;51.88
78121;BME280;67585;44.802;10.332;2023-07-30T00:34:16;100672.91;;;25.94;51.34
78121;BME280;67585;44.802;10.332;2023-07-30T00:36:41;100666.00;;;26.04;51.34
78121;BME280;67585;44.802;10.332;2023-07-30T00:39:07;100663.59;;;26.02;50.71
78121;BME280;67585;44.802;10.332;2023-07-30T00:41:32;100678.44;;;26.13;50.99
78121;BME280;67585;44.802;10.332;2023-07-30T00:43:58;100667.84;;;25.80;51.56
78121;BME280;67585;44.802;10.332;2023-07-30T00:46:23;100660.28;;;25.77;50.91
78121;BME280;67585;44.802;10.332;2023-07-30T00:48:49;100697.94;;;25.85;51.32
78121;BME280;67585;44.802;10.332;2023-07-30T00:51:16;100695.09;;;25.82;51.07
78121;BME280;67585;44.802;10.332;2023-07-30T00:53:41;100704.72;;;25.72;51.82
78121;BME280;67585;44.802;10.332;2023-07-30T00:56:07;100698.94;;;25.77;51.31
78121;BME280;67585;44.802;10.332;2023-07-30T00:58:32;100697.13;;;25.33;53.03
78121;BME280;67585;44.802;10.332;2023-07-30T01:00:58;100675.84;;;25.50;52.27
78121;BME280;67585;44.802;10.332;2023-07-30T01:03:24;100641.81;;;24.94;53.21
78121;BME280;67585;44.802;10.332;2023-07-30T01:05:50;100666.72;;;25.30;53.35
78121;BME280;67585;44.802;10.332;2023-07-30T01:08:16;100670.72;;;25.32;53.64
78121;BME280;67585;44.802;10.332;2023-07-30T01:10:41;100641.38;;;25.08;53.88
78121;BME280;67585;44.802;10.332;2023-07-30T01:13:08;100662.47;;;25.32;53.99
78121;BME280;67585;44.802;10.332;2023-07-30T01:15:35;100669.38;;;25.42;53.53
78121;BME280;67585;44.802;10.332;2023-07-30T01:18:01;100661.72;;;25.35;53.86
78121;BME280;67585;44.802;10.332;2023-07-30T01:20:32;100657.19;;;25.11;54.56
78121;BME280;67585;44.802;10.332;2023-07-30T01:22:58;100651.78;;;24.83;55.23
78121;BME280;67585;44.802;10.332;2023-07-30T01:25:27;100669.28;;;25.07;54.94
78121;BME280;67585;44.802;10.332;2023-07-30T01:27:55;100671.63;;;25.21;55.07
78121;BME280;67585;44.802;10.332;2023-07-30T01:30:38;100645.28;;;25.07;54.69
78121;BME280;67585;44.802;10.332;2023-07-30T01:33:05;100643.69;;;25.06;54.70
78121;BME280;67585;44.802;10.332;2023-07-30T01:35:32;100619.88;;;24.98;54.60
78121;BME280;67585;44.802;10.332;2023-07-30T01:37:57;100652.91;;;25.14;54.50
78121;BME280;67585;44.802;10.332;2023-07-30T01:40:23;100653.75;;;24.99;54.98
78121;BME280;67585;44.802;10.332;2023-07-30T01:42:49;100631.06;;;24.73;55.33
78121;BME280;67585;44.802;10.332;2023-07-30T01:45:15;100628.75;;;24.76;55.51
78121;BME280;67585;44.802;10.332;2023-07-30T01:47:40;100652.81;;;24.63;56.24
78121;BME280;67585;44.802;10.332;2023-07-30T01:50:06;100642.78;;;24.70;56.17
78121;BME280;67585;44.802;10.332;2023-07-30T01:52:31;100619.53;;;24.84;55.11
78121;BME280;67585;44.802;10.332;2023-07-30T01:54:57;100630.16;;;24.85;55.37
78121;BME280;67585;44.802;10.332;2023-07-30T01:57:24;100611.53;;;24.79;55.46
78121;BME280;67585;44.802;10.332;2023-07-30T01:59:49;100608.47;;;24.52;56.30
78121;BME280;67585;44.802;10.332;2023-07-30T02:02:14;100603.44;;;24.42;57.10
78121;BME280;67585;44.802;10.332;2023-07-30T02:04:40;100616.75;;;24.68;56.53
78121;BME280;67585;44.802;10.332;2023-07-30T02:07:05;100613.19;;;24.67;56.77
78121;BME280;67585;44.802;10.332;2023-07-30T02:09:30;100630.88;;;24.66;57.27
78121;BME280;67585;44.802;10.332;2023-07-30T02:11:56;100633.72;;;24.54;57.04
78121;BME280;67585;44.802;10.332;2023-07-30T02:14:21;100617.66;;;24.44;57.38
78121;BME280;67585;44.802;10.332;2023-07-30T02:16:46;100640.13;;;24.30;58.20
78121;BME280;67585;44.802;10.332;2023-07-30T02:19:12;100638.44;;;24.41;57.58
78121;BME280;67585;44.802;10.332;2023-07-30T02:21:37;100638.88;;;24.27;58.47
78121;BME280;67585;44.802;10.332;2023-07-30T02:24:08;100614.97;;;24.31;57.86
78121;BME280;67585;44.802;10.332;2023-07-30T02:26:35;100632.66;;;24.30;58.10
78121;BME280;67585;44.802;10.332;2023-07-30T02:29:00;100631.66;;;24.51;57.35
78121;BME280;67585;44.802;10.332;2023-07-30T02:31:26;100613.47;;;24.18;58.03
78121;BME280;67585;44.802;10.332;2023-07-30T02:33:51;100629.25;;;24.21;57.98
78121;BME280;67585;44.802;10.332;2023-07-30T02:36:17;100614.00;;;24.24;57.86
78121;BME280;67585;44.802;10.332;2023-07-30T02:38:42;100607.56;;;24.20;57.67
78121;BME280;67585;44.802;10.332;2023-07-30T02:41:07;100623.66;;;24.46;57.25
78121;BME280;67585;44.802;10.332;2023-07-30T02:43:33;100623.81;;;24.09;58.81
78121;BME280;67585;44.802;10.332;2023-07-30T02:45:58;100629.50;;;24.16;58.68
78121;BME280;67585;44.802;10.332;2023-07-30T02:48:23;100595.31;;;24.17;57.48
78121;BME280;67585;44.802;10.332;2023-07-30T02:50:49;100625.41;;;24.38;57.79
78121;BME280;67585;44.802;10.332;2023-07-30T02:53:14;100610.38;;;24.36;58.07
78121;BME280;67585;44.802;10.332;2023-07-30T02:55:39;100605.38;;;24.25;58.32
78121;BME280;67585;44.802;10.332;2023-07-30T02:58:04;100621.94;;;24.41;57.66
78121;BME280;67585;44.802;10.332;2023-07-30T03:00:30;100625.69;;;24.49;57.71
78121;BME280;67585;44.802;10.332;2023-07-30T03:02:56;100622.81;;;24.45;57.94
78121;BME280;67585;44.802;10.332;2023-07-30T03:05:21;100617.84;;;24.35;58.05
78121;BME280;67585;44.802;10.332;2023-07-30T03:07:47;100609.84;;;24.30;57.98
78121;BME280;67585;44.802;10.332;2023-07-30T03:10:12;100628.63;;;24.56;57.57
78121;BME280;67585;44.802;10.332;2023-07-30T03:12:37;100615.13;;;24.51;57.72
78121;BME280;67585;44.802;10.332;2023-07-30T03:15:03;100617.94;;;24.39;58.30
78121;BME280;67585;44.802;10.332;2023-07-30T03:17:28;100597.78;;;24.35;57.96
78121;BME280;67585;44.802;10.332;2023-07-30T03:19:54;100582.50;;;24.37;58.07
78121;BME280;67585;44.802;10.332;2023-07-30T03:22:19;100603.78;;;24.52;58.06
78121;BME280;67585;44.802;10.332;2023-07-30T03:24:48;100620.66;;;24.67;57.64
78121;BME280;67585;44.802;10.332;2023-07-30T03:27:14;100613.47;;;24.62;57.18
78121;BME280;67585;44.802;10.332;2023-07-30T03:29:39;100611.63;;;24.38;58.53
78121;BME280;67585;44.802;10.332;2023-07-30T03:32:05;100605.56;;;23.88;59.62
78121;BME280;67585;44.802;10.332;2023-07-30T03:34:30;100620.28;;;24.24;59.22
78121;BME280;67585;44.802;10.332;2023-07-30T03:36:56;100622.19;;;24.36;58.87
78121;BME280;67585;44.802;10.332;2023-07-30T03:39:21;100605.28;;;24.50;57.97
78121;BME280;67585;44.802;10.332;2023-07-30T03:41:46;100625.34;;;24.50;58.61
78121;BME280;67585;44.802;10.332;2023-07-30T03:44:12;100623.16;;;24.28;59.58
78121;BME280;67585;44.802;10.332;2023-07-30T03:46:37;100595.63;;;24.28;58.86
78121;BME280;67585;44.802;10.332;2023-07-30T03:49:02;100583.97;;;24.19;59.55
78121;BME280;67585;44.802;10.332;2023-07-30T03:51:28;100573.38;;;24.05;59.50
78121;BME280;67585;44.802;10.332;2023-07-30T03:53:53;100591.69;;;24.13;59.38
78121;BME280;67585;44.802;10.332;2023-07-30T03:56:18;100580.03;;;24.04;60.34
78121;BME280;67585;44.802;10.332;2023-07-30T03:58:44;100559.59;;;24.05;59.95
78121;BME280;67585;44.802;10.332;2023-07-30T04:01:09;100543.47;;;23.75;60.49
78121;BME280;67585;44.802;10.332;2023-07-30T04:03:34;100569.78;;;23.88;60.85
78121;BME280;67585;44.802;10.332;2023-07-30T04:06:00;100588.56;;;24.15;61.07
78121;BME280;67585;44.802;10.332;2023-07-30T04:08:25;100572.34;;;24.25;59.51
78121;BME280;67585;44.802;10.332;2023-07-30T04:10:51;100589.00;;;24.45;59.62
78121;BME280;67585;44.802;10.332;2023-07-30T04:13:16;100590.91;;;24.57;59.29
78121;BME280;67585;44.802;10.332;2023-07-30T04:15:42;100567.66;;;24.42;59.33
78121;BME280;67585;44.802;10.332;2023-07-30T04:18:07;100580.75;;;24.61;58.95
78121;BME280;67585;44.802;10.332;2023-07-30T04:20:32;100576.22;;;24.68;58.81
78121;BME280;67585;44.802;10.332;2023-07-30T04:22:58;100558.25;;;24.59;59.05
78121;BME280;67585;44.802;10.332;2023-07-30T04:25:23;100564.84;;;24.70;58.96
78121;BME280;67585;44.802;10.332;2023-07-30T04:27:49;100555.66;;;24.34;59.54
78121;BME280;67585;44.802;10.332;2023-07-30T04:30:14;100570.72;;;24.52;58.80
78121;BME280;67585;44.802;10.332;2023-07-30T04:32:39;100574.44;;;24.60;59.06
78121;BME280;67585;44.802;10.332;2023-07-30T04:35:05;100573.06;;;24.38;59.82
78121;BME280;67585;44.802;10.332;2023-07-30T04:37:30;100576.72;;;24.42;59.66
78121;BME280;67585;44.802;10.332;2023-07-30T04:39:56;100562.13;;;24.42;59.32
78121;BME280;67585;44.802;10.332;2023-07-30T04:42:22;100563.56;;;24.36;60.21
78121;BME280;67585;44.802;10.332;2023-07-30T04:44:47;100572.34;;;24.41;59.91
78121;BME280;67585;44.802;10.332;2023-07-30T04:47:15;100566.53;;;24.59;59.69
78121;BME280;67585;44.802;10.332;2023-07-30T04:49:43;100575.81;;;24.38;60.05
78121;BME280;67585;44.802;10.332;2023-07-30T04:52:09;100569.97;;;23.96;61.37
78121;BME280;67585;44.802;10.332;2023-07-30T04:54:35;100580.88;;;24.20;60.65
78121;BME280;67585;44.802;10.332;2023-07-30T04:57:03;100590.97;;;24.16;61.37
78121;BME280;67585;44.802;10.332;2023-07-30T04:59:29;100573.34;;;24.33;60.31
78121;BME280;67585;44.802;10.332;2023-07-30T05:01:55;100581.59;;;24.33;60.96
78121;BME280;67585;44.802;10.332;2023-07-30T05:04:20;100598.25;;;24.52;59.98
78121;BME280;67585;44.802;10.332;2023-07-30T05:06:45;100585.59;;;24.36;59.88
78121;BME280;67585;44.802;10.332;2023-07-30T05:09:11;100601.47;;;24.55;60.30
78121;BME280;67585;44.802;10.332;2023-07-30T05:11:38;100571.09;;;24.23;60.42
78121;BME280;67585;44.802;10.332;2023-07-30T05:14:03;100585.84;;;24.30;60.72
78121;BME280;67585;44.802;10.332;2023-07-30T05:16:29;100602.09;;;24.80;59.30
78121;BME280;67585;44.802;10.332;2023-07-30T05:18:54;100573.28;;;24.61;58.78
78121;BME280;67585;44.802;10.332;2023-07-30T05:21:20;100585.31;;;24.69;58.53
78121;BME280;67585;44.802;10.332;2023-07-30T05:23:45;100616.13;;;24.74;59.14
78121;BME280;67585;44.802;10.332;2023-07-30T05:26:10;100595.78;;;24.47;59.50
78121;BME280;67585;44.802;10.332;2023-07-30T05:28:36;100576.16;;;24.37;59.65
78121;BME280;67585;44.802;10.332;2023-07-30T05:31:01;100611.91;;;24.49;59.52
78121;BME280;67585;44.802;10.332;2023-07-30T05:33:26;100630.09;;;24.38;60.47
78121;BME280;67585;44.802;10.332;2023-07-30T05:35:52;100639.94;;;24.67;59.27
78121;BME280;67585;44.802;10.332;2023-07-30T05:38:17;100622.09;;;24.33;60.31
78121;BME280;67585;44.802;10.332;2023-07-30T05:40:43;100628.38;;;24.61;59.25
78121;BME280;67585;44.802;10.332;2023-07-30T05:43:08;100624.81;;;24.17;60.83
78121;BME280;67585;44.802;10.332;2023-07-30T05:45:34;100643.91;;;24.53;60.20
78121;BME280;67585;44.802;10.332;2023-07-30T05:47:59;100644.91;;;24.61;59.89
78121;BME280;67585;44.802;10.332;2023-07-30T05:50:25;100644.91;;;24.61;60.07
78121;BME280;67585;44.802;10.332;2023-07-30T05:52:50;100653.47;;;24.44;60.71
78121;BME280;67585;44.802;10.332;2023-07-30T05:55:16;100628.28;;;24.29;60.07
78121;BME280;67585;44.802;10.332;2023-07-30T05:57:41;100663.16;;;24.38;60.87
78121;BME280;67585;44.802;10.332;2023-07-30T06:00:07;100672.28;;;24.42;61.39
78121;BME280;67585;44.802;10.332;2023-07-30T06:02:33;100672.63;;;24.52;60.69
78121;BME280;67585;44.802;10.332;2023-07-30T06:04:58;100672.38;;;24.58;60.48
78121;BME280;67585;44.802;10.332;2023-07-30T06:07:24;100670.16;;;24.63;60.29
78121;BME280;67585;44.802;10.332;2023-07-30T06:09:49;100643.75;;;24.62;60.19
78121;BME280;67585;44.802;10.332;2023-07-30T06:12:15;100660.06;;;24.83;59.51
78121;BME280;67585;44.802;10.332;2023-07-30T06:14:40;100669.28;;;25.07;58.46
78121;BME280;67585;44.802;10.332;2023-07-30T06:17:05;100663.09;;;25.10;58.23
78121;BME280;67585;44.802;10.332;2023-07-30T06:19:31;100658.25;;;25.07;58.77
78121;BME280;67585;44.802;10.332;2023-07-30T06:21:56;100645.38;;;24.79;59.58
78121;BME280;67585;44.802;10.332;2023-07-30T06:24:22;100669.91;;;25.16;58.60
78121;BME280;67585;44.802;10.332;2023-07-30T06:26:47;100652.06;;;25.10;58.41
78121;BME280;67585;44.802;10.332;2023-07-30T06:29:12;100677.50;;;25.35;57.85
78121;BME280;67585;44.802;10.332;2023-07-30T06:31:38;100676.13;;;25.45;57.79
78121;BME280;67585;44.802;10.332;2023-07-30T06:34:03;100678.53;;;25.46;57.17
78121;BME280;67585;44.802;10.332;2023-07-30T06:36:29;100677.59;;;25.74;56.51
78121;BME280;67585;44.802;10.332;2023-07-30T06:38:54;100672.50;;;25.76;56.44
78121;BME280;67585;44.802;10.332;2023-07-30T06:41:20;100686.75;;;25.78;55.83
78121;BME280;67585;44.802;10.332;2023-07-30T06:43:46;100685.13;;;25.77;55.62
78121;BME280;67585;44.802;10.332;2023-07-30T06:46:12;100679.06;;;25.87;55.04
78121;BME280;67585;44.802;10.332;2023-07-30T06:48:37;100657.97;;;25.79;54.41
78121;BME280;67585;44.802;10.332;2023-07-30T06:51:06;100671.47;;;26.00;54.06
78121;BME280;67585;44.802;10.332;2023-07-30T06:53:31;100669.22;;;26.25;53.08
78121;BME280;67585;44.802;10.332;2023-07-30T06:55:57;100676.31;;;26.26;52.78
78121;BME280;67585;44.802;10.332;2023-07-30T06:58:22;100657.06;;;26.30;52.15
78121;BME280;67585;44.802;10.332;2023-07-30T07:00:47;100673.53;;;26.46;52.67
78121;BME280;67585;44.802;10.332;2023-07-30T07:03:13;100649.78;;;26.60;51.64
78121;BME280;67585;44.802;10.332;2023-07-30T07:05:38;100666.47;;;26.48;52.54
78121;BME280;67585;44.802;10.332;2023-07-30T07:08:04;100665.06;;;26.54;52.05
78121;BME280;67585;44.802;10.332;2023-07-30T07:10:29;100668.19;;;26.14;53.34
78121;BME280;67585;44.802;10.332;2023-07-30T07:12:55;100663.59;;;26.60;52.19
78121;BME280;67585;44.802;10.332;2023-07-30T07:15:20;100682.66;;;26.66;52.04
78121;BME280;67585;44.802;10.332;2023-07-30T07:17:45;100687.66;;;26.60;52.38
78121;BME280;67585;44.802;10.332;2023-07-30T07:20:11;100675.72;;;26.75;51.52
78121;BME280;67585;44.802;10.332;2023-07-30T07:22:36;100671.59;;;26.89;50.77
78121;BME280;67585;44.802;10.332;2023-07-30T07:25:02;100675.03;;;27.05;50.61
78121;BME280;67585;44.802;10.332;2023-07-30T07:27:28;100672.56;;;27.23;49.75
78121;BME280;67585;44.802;10.332;2023-07-30T07:29:53;100679.97;;;27.42;49.52
78121;BME280;67585;44.802;10.332;2023-07-30T07:32:19;100681.94;;;27.68;48.54
78121;BME280;67585;44.802;10.332;2023-07-30T07:34:48;100680.03;;;28.02;48.33
78121;BME280;67585;44.802;10.332;2023-07-30T07:37:14;100666.19;;;28.02;47.71
78121;BME280;67585;44.802;10.332;2023-07-30T07:39:41;100681.78;;;27.84;48.23
78121;BME280;67585;44.802;10.332;2023-07-30T07:42:06;100652.00;;;28.04;47.61
78121;BME280;67585;44.802;10.332;2023-07-30T07:44:32;100678.25;;;28.17;47.87
78121;BME280;67585;44.802;10.332;2023-07-30T07:46:57;100674.91;;;28.72;46.24
78121;BME280;67585;44.802;10.332;2023-07-30T07:49:22;100672.94;;;28.72;46.04
78121;BME280;67585;44.802;10.332;2023-07-30T07:51:48;100666.69;;;27.81;48.24
78121;BME280;67585;44.802;10.332;2023-07-30T07:54:13;100679.53;;;28.57;46.82
78121;BME280;67585;44.802;10.332;2023-07-30T07:56:39;100655.97;;;28.44;46.41
78121;BME280;67585;44.802;10.332;2023-07-30T07:59:04;100670.34;;;28.94;46.05
78121;BME280;67585;44.802;10.332;2023-07-30T08:01:29;100660.00;;;28.87;46.09
78121;BME280;67585;44.802;10.332;2023-07-30T08:03:55;100675.44;;;29.33;45.69
78121;BME280;67585;44.802;10.332;2023-07-30T08:06:20;100675.28;;;29.70;45.10
78121;BME280;67585;44.802;10.332;2023-07-30T08:08:46;100684.50;;;29.85;44.54
78121;BME280;67585;44.802;10.332;2023-07-30T08:11:11;100671.34;;;29.71;44.02
78121;BME280;67585;44.802;10.332;2023-07-30T08:13:36;100669.13;;;29.39;44.89
78121;BME280;67585;44.802;10.332;2023-07-30T08:16:02;100667.13;;;29.33;46.17
78121;BME280;67585;44.802;10.332;2023-07-30T08:18:28;100654.22;;;29.62;45.08
78121;BME280;67585;44.802;10.332;2023-07-30T08:20:53;100670.63;;;29.92;44.71
78121;BME280;67585;44.802;10.332;2023-07-30T08:23:19;100684.56;;;29.99;44.27
78121;BME280;67585;44.802;10.332;2023-07-30T08:25:44;100667.47;;;29.97;44.18
78121;BME280;67585;44.802;10.332;2023-07-30T08:28:10;100683.06;;;30.20;43.98
78121;BME280;67585;44.802;10.332;2023-07-30T08:30:35;100679.72;;;29.78;44.89
78121;BME280;67585;44.802;10.332;2023-07-30T08:33:01;100676.09;;;29.71;44.34
78121;BME280;67585;44.802;10.332;2023-07-30T08:35:26;100652.88;;;30.18;43.30
78121;BME280;67585;44.802;10.332;2023-07-30T08:37:55;100672.03;;;30.38;43.02
78121;BME280;67585;44.802;10.332;2023-07-30T08:40:24;100669.22;;;30.27;43.56
78121;BME280;67585;44.802;10.332;2023-07-30T08:42:53;100653.41;;;30.67;42.15
78121;BME280;67585;44.802;10.332;2023-07-30T08:45:19;100653.44;;;31.24;40.52
78121;BME280;67585;44.802;10.332;2023-07-30T08:47:45;100661.78;;;31.06;41.25
78121;BME280;67585;44.802;10.332;2023-07-30T08:50:11;100659.81;;;31.03;41.49
78121;BME280;67585;44.802;10.332;2023-07-30T08:52:37;100665.38;;;31.11;41.89
78121;BME280;67585;44.802;10.332;2023-07-30T08:55:03;100678.50;;;31.03;41.84
78121;BME280;67585;44.802;10.332;2023-07-30T08:57:30;100656.19;;;31.49;41.01
78121;BME280;67585;44.802;10.332;2023-07-30T09:00:17;100667.31;;;31.49;40.91
78121;BME280;67585;44.802;10.332;2023-07-30T09:05:14;100657.41;;;31.23;41.80
78121;BME280;67585;44.802;10.332;2023-07-30T09:07:40;100638.28;;;31.43;40.77
78121;BME280;67585;44.802;10.332;2023-07-30T09:10:05;100647.09;;;31.09;40.73
78121;BME280;67585;44.802;10.332;2023-07-30T09:12:32;100656.22;;;31.14;40.90
78121;BME280;67585;44.802;10.332;2023-07-30T09:14:58;100644.69;;;31.19;40.83
78121;BME280;67585;44.802;10.332;2023-07-30T09:17:24;100647.84;;;31.46;40.56
78121;BME280;67585;44.802;10.332;2023-07-30T09:19:51;100645.44;;;31.59;40.20
78121;BME280;67585;44.802;10.332;2023-07-30T09:22:35;100653.31;;;31.75;40.49
78121;BME280;67585;44.802;10.332;2023-07-30T09:25:05;100641.78;;;31.72;39.25
78121;BME280;67585;44.802;10.332;2023-07-30T09:27:31;100635.72;;;32.03;39.01
78121;BME280;67585;44.802;10.332;2023-07-30T09:29:58;100636.41;;;32.25;39.52
78121;BME280;67585;44.802;10.332;2023-07-30T09:32:27;100642.59;;;31.73;39.34
78121;BME280;67585;44.802;10.332;2023-07-30T09:34:53;100645.28;;;32.02;39.34
78121;BME280;67585;44.802;10.332;2023-07-30T09:37:19;100597.97;;;31.87;39.13
78121;BME280;67585;44.802;10.332;2023-07-30T09:39:47;100636.75;;;32.34;39.15
78121;BME280;67585;44.802;10.332;2023-07-30T09:42:12;100637.84;;;32.47;37.88
78121;BME280;67585;44.802;10.332;2023-07-30T09:44:38;100640.44;;;32.76;38.25
78121;BME280;67585;44.802;10.332;2023-07-30T09:47:05;100635.72;;;32.73;37.78
78121;BME280;67585;44.802;10.332;2023-07-30T09:49:35;100631.69;;;32.77;38.75
78121;BME280;67585;44.802;10.332;2023-07-30T09:52:02;100631.28;;;33.24;37.64
78121;BME280;67585;44.802;10.332;2023-07-30T09:54:28;100611.16;;;32.53;37.64
78121;BME280;67585;44.802;10.332;2023-07-30T09:56:54;100621.75;;;32.73;37.12
78121;BME280;67585;44.802;10.332;2023-07-30T09:59:19;100625.09;;;33.02;37.71
78121;BME280;67585;44.802;10.332;2023-07-30T10:01:49;100621.13;;;32.99;36.73
78121;BME280;67585;44.802;10.332;2023-07-30T10:04:15;100618.94;;;33.22;36.96
78121;BME280;67585;44.802;10.332;2023-07-30T10:06:56;100600.94;;;32.81;37.73
78121;BME280;67585;44.802;10.332;2023-07-30T10:09:23;100619.38;;;32.71;37.75
78121;BME280;67585;44.802;10.332;2023-07-30T10:11:51;100610.00;;;32.44;38.16
78121;BME280;67585;44.802;10.332;2023-07-30T10:14:19;100614.44;;;32.90;37.07
78121;BME280;67585;44.802;10.332;2023-07-30T10:16:54;100608.63;;;33.15;37.04
78121;BME280;67585;44.802;10.332;2023-07-30T10:19:25;100613.44;;;33.14;37.28
78121;BME280;67585;44.802;10.332;2023-07-30T10:21:51;100592.91;;;33.66;36.35
78121;BME280;67585;44.802;10.332;2023-07-30T10:24:16;100605.94;;;34.11;35.62
78121;BME280;67585;44.802;10.332;2023-07-30T10:26:42;100592.72;;;33.80;35.59
78121;BME280;67585;44.802;10.332;2023-07-30T10:29:20;100602.50;;;34.26;34.30
78121;BME280;67585;44.802;10.332;2023-07-30T10:31:55;100598.34;;;34.08;34.98
78121;BME280;67585;44.802;10.332;2023-07-30T10:34:21;100610.41;;;33.36;36.96
78121;BME280;67585;44.802;10.332;2023-07-30T10:36:50;100615.63;;;32.89;37.09
78121;BME280;67585;44.802;10.332;2023-07-30T10:39:26;100620.34;;;32.95;36.71
78121;BME280;67585;44.802;10.332;2023-07-30T10:41:55;100613.31;;;33.25;37.05
78121;BME280;67585;44.802;10.332;2023-07-30T10:44:25;100601.84;;;33.16;36.93
78121;BME280;67585;44.802;10.332;2023-07-30T10:46:52;100615.44;;;33.14;37.29
78121;BME280;67585;44.802;10.332;2023-07-30T10:49:21;100608.75;;;33.76;36.77
78121;BME280;67585;44.802;10.332;2023-07-30T10:51:47;100596.28;;;34.42;34.57
78121;BME280;67585;44.802;10.332;2023-07-30T10:54:13;100606.75;;;34.85;34.99
78121;BME280;67585;44.802;10.332;2023-07-30T10:56:38;100582.94;;;33.96;35.35
78121;BME280;67585;44.802;10.332;2023-07-30T10:59:05;100593.28;;;32.89;37.26
78121;BME280;67585;44.802;10.332;2023-07-30T11:01:38;100592.53;;;32.32;38.85
78121;BME280;67585;44.802;10.332;2023-07-30T11:04:19;100580.88;;;32.45;38.99
78121;BME280;67585;44.802;10.332;2023-07-30T11:06:50;100591.00;;;32.21;38.37
78121;BME280;67585;44.802;10.332;2023-07-30T11:09:23;100602.38;;;31.78;39.66
78121;BME280;67585;44.802;10.332;2023-07-30T11:11:50;100583.13;;;32.68;38.56
78121;BME280;67585;44.802;10.332;2023-07-30T11:14:17;100577.00;;;32.84;37.75
78121;BME280;67585;44.802;10.332;2023-07-30T11:17:00;100575.19;;;32.07;39.06
78121;BME280;67585;44.802;10.332;2023-07-30T11:19:26;100568.63;;;32.84;38.19
78121;BME280;67585;44.802;10.332;2023-07-30T11:21:52;100570.19;;;32.88;37.34
78121;BME280;67585;44.802;10.332;2023-07-30T11:24:22;100570.06;;;33.40;36.78
78121;BME280;67585;44.802;10.332;2023-07-30T11:27:02;100573.56;;;33.79;36.06
78121;BME280;67585;44.802;10.332;2023-07-30T11:29:28;100563.56;;;34.63;34.58
78121;BME280;67585;44.802;10.332;2023-07-30T11:31:57;100555.94;;;33.55;35.76
78121;BME280;67585;44.802;10.332;2023-07-30T11:34:26;100562.09;;;34.00;35.70
78121;BME280;67585;44.802;10.332;2023-07-30T11:36:53;100579.41;;;33.92;35.34
78121;BME280;67585;44.802;10.332;2023-07-30T11:39:19;100578.16;;;33.96;35.54
78121;BME280;67585;44.802;10.332;2023-07-30T11:41:45;100573.09;;;32.74;38.90
78121;BME280;67585;44.802;10.332;2023-07-30T11:44:33;100578.47;;;32.99;37.93
78121;BME280;67585;44.802;10.332;2023-07-30T11:46:59;100556.28;;;32.81;38.01
78121;BME280;67585;44.802;10.332;2023-07-30T11:49:25;100568.66;;;32.28;38.21
78121;BME280;67585;44.802;10.332;2023-07-30T11:51:50;100575.41;;;32.30;38.94
78121;BME280;67585;44.802;10.332;2023-07-30T11:54:24;100547.28;;;32.10;39.19
78121;BME280;67585;44.802;10.332;2023-07-30T11:56:55;100574.50;;;31.85;39.60
78121;BME280;67585;44.802;10.332;2023-07-30T11:59:21;100587.44;;;32.24;38.72
78121;BME280;67585;44.802;10.332;2023-07-30T12:01:47;100576.75;;;32.11;39.93
78121;BME280;67585;44.802;10.332;2023-07-30T12:04:12;100542.97;;;32.02;39.69
78121;BME280;67585;44.802;10.332;2023-07-30T12:06:46;100551.47;;;32.85;38.00
78121;BME280;67585;44.802;10.332;2023-07-30T12:09:14;100550.41;;;32.72;38.61
78121;BME280;67585;44.802;10.332;2023-07-30T12:11:48;100556.63;;;32.38;38.79
78121;BME280;67585;44.802;10.332;2023-07-30T12:14:14;100534.47;;;32.20;39.39
78121;BME280;67585;44.802;10.332;2023-07-30T12:16:40;100533.22;;;32.28;39.58
78121;BME280;67585;44.802;10.332;2023-07-30T12:19:05;100535.34;;;33.04;38.96
78121;BME280;67585;44.802;10.332;2023-07-30T12:21:31;100538.50;;;33.44;37.59
78121;BME280;67585;44.802;10.332;2023-07-30T12:23:56;100542.41;;;34.08;36.38
78121;BME280;67585;44.802;10.332;2023-07-30T12:26:21;100526.09;;;33.45;36.87
78121;BME280;67585;44.802;10.332;2023-07-30T12:28:47;100524.38;;;33.58;37.07
78121;BME280;67585;44.802;10.332;2023-07-30T12:31:12;100537.44;;;34.22;35.42
78121;BME280;67585;44.802;10.332;2023-07-30T12:33:38;100526.91;;;33.11;36.84
78121;BME280;67585;44.802;10.332;2023-07-30T12:36:03;100515.84;;;33.00;37.36
78121;BME280;67585;44.802;10.332;2023-07-30T12:38:31;100523.31;;;32.72;38.61